OMAASBRF

Guest
Details From OMAA - Abu Dhabi Intl
To SBRF - Recife Intl
Flight Number -
Tags Generated
Created
Modified
Stats Distance 5,583 nm / 10,340 km
Max Altitude 0 ft / 0 m
Waypoints 6
Social Downloads 1
Likes 0
Share VATSIM

Download

Looking for another format? Having issues loading an existing format? Contact us
Advertisement - Login to hide

Notes

Generated

Route

OMAA DEBAS R2232 BOSSO REC07 SBRF

ID Type Via Altitude Latitude Longitude Leg Dist Tot Dist Heading (true) Name
O OMAA APT - 0 ft / 0 m 24.44439˚ 54.63521˚ - 0 nm - -
DEBAS FIX - 0 ft / 0 m 23.18292˚ 46.45778˚ 455 nm 455 nm 262° / 259° -
R2232 FIX - 0 ft / 0 m 21.70274˚ 39.12687˚ 416 nm 872 nm 259° / 256° -
BOSSO FIX - 0 ft / 0 m 13.54987˚ 13.04936˚ 1568 nm 2440 nm 256° / 248° -
REC07 FIX - 0 ft / 0 m -8.03347˚ -34.79491˚ 3133 nm 5573 nm 248° / 246° -
O SBRF APT - 0 ft / 0 m -8.12516˚ -34.92862˚ 9 nm 5583 nm 235° / 235° -

Altitude Profile

Advertisement - Login to hide

Weather


0- 5 10 15 20 25 30 35+ Temperature / ° C

Clouds and Precipitation
Forecast for 2017-12-18 00:00 UTC. Updated 43 minutes ago

Ground ~20,000 ft ~40,000 ft Winds

OMAA

Details ICAO OMAA (AUH)
Name ABU DHABI INTL
Region United Arab Emirates
Timezone Asia/Dubai (UTC+4.0)
Stats Elevation 88 ft / 27 m (AMSL)
Location 24.433049° 54.651182°
Runways 1
Magnetic Variation 1.980° E

METAR

OMAA 172000Z VRB01KT CAVOK 19/14 Q1019 NOSIG

Decode

TAF

TAF OMAA 171714Z 1718/1900 33005KT 8000 FEW040 BECMG 1721/1723 VRB02KT BECMG 1805/1807 06005KT BECMG 1811/1813 35012KT

Decode

Departure Runways

ID Width Length Bearing (true) Bearing (mag) Surface Threshold Offset Overrun Length
13 148 ft / 45 m 13,461 ft / 4,103 m 127.94° 125.96° Asphalt 0 ft / 0 m 180 ft / 55 m
31 148 ft / 45 m 13,461 ft / 4,103 m 307.95° 305.97° Asphalt 0 ft / 0 m 196 ft / 60 m

SBRF

Details ICAO SBRF (REC)
Name Recife Intl
Region Brazil
Timezone America/Recife (UTC-3.0)
Stats Elevation 33 ft / 10 m (AMSL)
Location -8.127896° -34.922981°
Runways 2
Magnetic Variation 22.088° W

METAR

SBRF 172000Z 11011KT 040V210 9999 -RA FEW019 SCT023 27/23 Q 1013

Decode

TAF

TAF SBRF 171530Z 1718/1818 09008KT 9999 SCT023 TN26/1808Z TX30/1814Z RMK PEA

Decode

Destination Runways

ID Width Length Bearing (true) Bearing (mag) Surface Threshold Offset Overrun Length
01 98 ft / 30 m 4,979 ft / 1,518 m 304.20° 326.29° Asphalt 300 ft / 91 m 0 ft / 0 m
18 148 ft / 45 m 9,915 ft / 3,022 m 161.91° 184.00° Asphalt 1,225 ft / 373 m 0 ft / 0 m
19 98 ft / 30 m 4,979 ft / 1,518 m 124.20° 146.29° Asphalt 300 ft / 91 m 0 ft / 0 m
36 148 ft / 45 m 9,915 ft / 3,022 m 341.91° 4.00° Asphalt 0 ft / 0 m 350 ft / 107 m

Approach Navaids

Runway Type Ident Frequency Range Bearing (true) Bearing (mag) Slope Elevation
18 Localiser IRF 110.30 MHz 18 nm / 33 km 161.91° 184.00° - 33 ft / 10 m (AMSL)
18 Glidescope IRF 110.30 MHz 10 nm / 19 km 161.91° 184.00° 3.00° 33 ft / 10 m (AMSL)